PWSweather.com
Personal Weather Stations
Station Observations
EDGELEY
Edgeley, Nd, Edgeley, ND 58433

Edgeley, NdEdgeley, ND 58433

Lat: 46.3599246, Lon: -98.7144392

Elevation: 1575

Station Type: Davis/Vantage Pro

www.edgeleyweather.com

High Low Average
Temperature 69.8°F21.0°C 57.5°F14.2°C 61.4°F16.3°C
Dew Point 61.1°F16.2°C 54.0°F12.2°C 57.6°F14.2°C
Winds 12.0 mph 19.3 kmh Calm Calm 4.0 mph N6.4 kmh N
Wind Gusts 16.0 mph25.7 kmh -- 8.0 mph12.9 kmh
Humidity 98% 69% 88%
Pressure 29.78 in1008.5 mb 29.62 in1003.0 mb -
Precipitation 0.00 in0.0 mm - -
Hour Temp Dew Point Humidity Winds Wind Gusts Pressure Precip Precip Rate Daily Precip Total
12:00 AM 57.5°F14.2°C 54.0°F12.2°C 88% 5.0 mph N8.0 kmh N 5.0 mph8.0 kmh 29.69 in1005.4 mb 0.00 in0.0 mm 0.00 in0.0 mm 0.00 in0.0 mm
12:05 AM 57.5°F14.2°C 54.0°F12.2°C 88% 4.0 mph N6.4 kmh N 6.0 mph9.7 kmh 29.69 in1005.4 mb 0.00 in0.0 mm 0.00 in0.0 mm 0.00 in0.0 mm
12:10 AM 57.5°F14.2°C 54.0°F12.2°C 88% 3.0 mph N4.8 kmh N 6.0 mph9.7 kmh 29.69 in1005.4 mb 0.00 in0.0 mm 0.00 in0.0 mm 0.00 in0.0 mm
12:15 AM 57.5°F14.2°C 54.3°F12.4°C 89% 1.0 mph N1.6 kmh N 4.0 mph6.4 kmh 29.68 in1005.1 mb 0.00 in0.0 mm 0.00 in0.0 mm 0.00 in0.0 mm
12:20 AM 57.5°F14.2°C 54.3°F12.4°C 89% 4.0 mph N6.4 kmh N 9.0 mph14.5 kmh 29.68 in1005.1 mb 0.00 in0.0 mm 0.00 in0.0 mm 0.00 in0.0 mm
12:25 AM 57.5°F14.2°C 54.3°F12.4°C 89% 4.0 mph N6.4 kmh N 9.0 mph14.5 kmh 29.68 in1005.1 mb 0.00 in0.0 mm 0.00 in0.0 mm 0.00 in0.0 mm
12:30 AM 57.5°F14.2°C 54.3°F12.4°C 89% 4.0 mph N6.4 kmh N 9.0 mph14.5 kmh 29.68 in1005.1 mb 0.00 in0.0 mm 0.00 in0.0 mm 0.00 in0.0 mm
12:35 AM 57.6°F14.2°C 54.4°F12.4°C 89% 2.0 mph N3.2 kmh N 9.0 mph14.5 kmh 29.68 in1005.1 mb 0.00 in0.0 mm 0.00 in0.0 mm 0.00 in0.0 mm
12:40 AM 57.6°F14.2°C 54.7°F12.6°C 90% 5.0 mph N8.0 kmh N 9.0 mph14.5 kmh 29.68 in1005.1 mb 0.00 in0.0 mm 0.00 in0.0 mm 0.00 in0.0 mm
12:45 AM 57.6°F14.2°C 54.7°F12.6°C 90% 6.0 mph N9.7 kmh N 6.0 mph9.7 kmh 29.67 in1004.7 mb 0.00 in0.0 mm 0.00 in0.0 mm 0.00 in0.0 mm
12:50 AM 57.6°F14.2°C 54.7°F12.6°C 90% 5.0 mph N8.0 kmh N 8.0 mph12.9 kmh 29.67 in1004.7 mb 0.00 in0.0 mm 0.00 in0.0 mm 0.00 in0.0 mm
12:55 AM 57.7°F14.3°C 54.8°F12.7°C 90% 6.0 mph N9.7 kmh N 9.0 mph14.5 kmh 29.67 in1004.7 mb 0.00 in0.0 mm 0.00 in0.0 mm 0.00 in0.0 mm
01:00 AM 57.7°F14.3°C 54.8°F12.7°C 90% 5.0 mph N8.0 kmh N 5.0 mph8.0 kmh 29.67 in1004.7 mb 0.00 in0.0 mm 0.00 in0.0 mm 0.00 in0.0 mm
01:05 AM 57.7°F14.3°C 54.8°F12.7°C 90% 5.0 mph N8.0 kmh N 8.0 mph12.9 kmh 29.67 in1004.7 mb 0.00 in0.0 mm 0.00 in0.0 mm 0.00 in0.0 mm
01:10 AM 57.7°F14.3°C 54.8°F12.7°C 90% 5.0 mph N8.0 kmh N 10.0 mph16.1 kmh 29.67 in1004.7 mb 0.00 in0.0 mm 0.00 in0.0 mm 0.00 in0.0 mm
01:15 AM 57.8°F14.3°C 55.2°F12.9°C 91% 5.0 mph N8.0 kmh N 5.0 mph8.0 kmh 29.67 in1004.7 mb 0.00 in0.0 mm 0.00 in0.0 mm 0.00 in0.0 mm
01:20 AM 57.8°F14.3°C 55.2°F12.9°C 91% 3.0 mph N4.8 kmh N 10.0 mph16.1 kmh 29.67 in1004.7 mb 0.00 in0.0 mm 0.00 in0.0 mm 0.00 in0.0 mm
01:25 AM 57.8°F14.3°C 55.2°F12.9°C 91% 5.0 mph N8.0 kmh N 10.0 mph16.1 kmh 29.67 in1004.7 mb 0.00 in0.0 mm 0.00 in0.0 mm 0.00 in0.0 mm
01:30 AM 57.8°F14.3°C 55.2°F12.9°C 91% 5.0 mph N8.0 kmh N 6.0 mph9.7 kmh 29.67 in1004.7 mb 0.00 in0.0 mm 0.00 in0.0 mm 0.00 in0.0 mm
01:35 AM 57.8°F14.3°C 54.9°F12.7°C 90% 2.0 mph N3.2 kmh N 9.0 mph14.5 kmh 29.67 in1004.7 mb 0.00 in0.0 mm 0.00 in0.0 mm 0.00 in0.0 mm
01:40 AM 57.8°F14.3°C 55.2°F12.9°C 91% 5.0 mph N8.0 kmh N 9.0 mph14.5 kmh 29.67 in1004.7 mb 0.00 in0.0 mm 0.00 in0.0 mm 0.00 in0.0 mm
01:45 AM 57.8°F14.3°C 55.2°F12.9°C 91% 2.0 mph N3.2 kmh N 6.0 mph9.7 kmh 29.67 in1004.7 mb 0.00 in0.0 mm 0.00 in0.0 mm 0.00 in0.0 mm
01:50 AM 57.7°F14.3°C 55.1°F12.8°C 91% 3.0 mph N4.8 kmh N 9.0 mph14.5 kmh 29.67 in1004.7 mb 0.00 in0.0 mm 0.00 in0.0 mm 0.00 in0.0 mm
01:55 AM 57.7°F14.3°C 55.1°F12.8°C 91% 2.0 mph N3.2 kmh N 9.0 mph14.5 kmh 29.67 in1004.7 mb 0.00 in0.0 mm 0.00 in0.0 mm 0.00 in0.0 mm
02:00 AM 57.8°F14.3°C 55.2°F12.9°C 91% 7.0 mph N11.3 kmh N 8.0 mph12.9 kmh 29.66 in1004.4 mb 0.00 in0.0 mm 0.00 in0.0 mm 0.00 in0.0 mm
02:05 AM 57.8°F14.3°C 55.2°F12.9°C 91% 3.0 mph N4.8 kmh N 11.0 mph17.7 kmh 29.66 in1004.4 mb 0.00 in0.0 mm 0.00 in0.0 mm 0.00 in0.0 mm
02:10 AM 57.8°F14.3°C 55.2°F12.9°C 91% Calm Calm 11.0 mph17.7 kmh 29.66 in1004.4 mb 0.00 in0.0 mm 0.00 in0.0 mm 0.00 in0.0 mm
02:15 AM 57.8°F14.3°C 55.2°F12.9°C 91% 7.0 mph N11.3 kmh N 9.0 mph14.5 kmh 29.66 in1004.4 mb 0.00 in0.0 mm 0.00 in0.0 mm 0.00 in0.0 mm
02:20 AM 57.9°F14.4°C 55.3°F12.9°C 91% 3.0 mph N4.8 kmh N 9.0 mph14.5 kmh 29.66 in1004.4 mb 0.00 in0.0 mm 0.00 in0.0 mm 0.00 in0.0 mm
02:25 AM 57.9°F14.4°C 55.3°F12.9°C 91% 4.0 mph N6.4 kmh N 9.0 mph14.5 kmh 29.66 in1004.4 mb 0.00 in0.0 mm 0.00 in0.0 mm 0.00 in0.0 mm
02:30 AM 58.0°F14.4°C 55.4°F13.0°C 91% 4.0 mph N6.4 kmh N 8.0 mph12.9 kmh 29.66 in1004.4 mb 0.00 in0.0 mm 0.00 in0.0 mm 0.00 in0.0 mm
02:35 AM 58.1°F14.5°C 55.5°F13.1°C 91% 3.0 mph N4.8 kmh N 14.0 mph22.5 kmh 29.66 in1004.4 mb 0.00 in0.0 mm 0.00 in0.0 mm 0.00 in0.0 mm
02:40 AM 58.2°F14.6°C 55.6°F13.1°C 91% 5.0 mph N8.0 kmh N 14.0 mph22.5 kmh 29.66 in1004.4 mb 0.00 in0.0 mm 0.00 in0.0 mm 0.00 in0.0 mm
02:45 AM 58.3°F14.6°C 55.7°F13.2°C 91% 12.0 mph N19.3 kmh N 12.0 mph19.3 kmh 29.65 in1004.1 mb 0.00 in0.0 mm 0.00 in0.0 mm 0.00 in0.0 mm
02:50 AM 58.4°F14.7°C 55.5°F13.1°C 90% 6.0 mph N9.7 kmh N 12.0 mph19.3 kmh 29.65 in1004.1 mb 0.00 in0.0 mm 0.00 in0.0 mm 0.00 in0.0 mm
02:55 AM 58.4°F14.7°C 55.5°F13.1°C 90% 10.0 mph N16.1 kmh N 12.0 mph19.3 kmh 29.66 in1004.4 mb 0.00 in0.0 mm 0.00 in0.0 mm 0.00 in0.0 mm
03:00 AM 58.4°F14.7°C 55.5°F13.1°C 90% 3.0 mph N4.8 kmh N 5.0 mph8.0 kmh 29.66 in1004.4 mb 0.00 in0.0 mm 0.00 in0.0 mm 0.00 in0.0 mm
03:05 AM 58.4°F14.7°C 55.8°F13.2°C 91% 6.0 mph N9.7 kmh N 9.0 mph14.5 kmh 29.65 in1004.1 mb 0.00 in0.0 mm 0.00 in0.0 mm 0.00 in0.0 mm
03:10 AM 58.3°F14.6°C 55.7°F13.2°C 91% 3.0 mph N4.8 kmh N 13.0 mph20.9 kmh 29.65 in1004.1 mb 0.00 in0.0 mm 0.00 in0.0 mm 0.00 in0.0 mm
03:15 AM 58.2°F14.6°C 55.6°F13.1°C 91% 4.0 mph N6.4 kmh N 6.0 mph9.7 kmh 29.65 in1004.1 mb 0.00 in0.0 mm 0.00 in0.0 mm 0.00 in0.0 mm
03:20 AM 58.1°F14.5°C 55.5°F13.1°C 91% 7.0 mph N11.3 kmh N 10.0 mph16.1 kmh 29.65 in1004.1 mb 0.00 in0.0 mm 0.00 in0.0 mm 0.00 in0.0 mm
03:25 AM 58.0°F14.4°C 55.4°F13.0°C 91% 5.0 mph N8.0 kmh N 10.0 mph16.1 kmh 29.65 in1004.1 mb 0.00 in0.0 mm 0.00 in0.0 mm 0.00 in0.0 mm
03:30 AM 57.8°F14.3°C 55.2°F12.9°C 91% 6.0 mph N9.7 kmh N 6.0 mph9.7 kmh 29.64 in1003.7 mb 0.00 in0.0 mm 0.00 in0.0 mm 0.00 in0.0 mm
03:35 AM 57.7°F14.3°C 55.4°F13.0°C 92% 3.0 mph N4.8 kmh N 9.0 mph14.5 kmh 29.65 in1004.1 mb 0.00 in0.0 mm 0.00 in0.0 mm 0.00 in0.0 mm
03:40 AM 57.7°F14.3°C 55.4°F13.0°C 92% 1.0 mph N1.6 kmh N 9.0 mph14.5 kmh 29.65 in1004.1 mb 0.00 in0.0 mm 0.00 in0.0 mm 0.00 in0.0 mm
03:45 AM 57.6°F14.2°C 55.3°F12.9°C 92% 5.0 mph N8.0 kmh N 5.0 mph8.0 kmh 29.65 in1004.1 mb 0.00 in0.0 mm 0.00 in0.0 mm 0.00 in0.0 mm
03:50 AM 57.6°F14.2°C 55.3°F12.9°C 92% 5.0 mph N8.0 kmh N 10.0 mph16.1 kmh 29.65 in1004.1 mb 0.00 in0.0 mm 0.00 in0.0 mm 0.00 in0.0 mm
03:55 AM 57.5°F14.2°C 55.2°F12.9°C 92% 7.0 mph N11.3 kmh N 10.0 mph16.1 kmh 29.65 in1004.1 mb 0.00 in0.0 mm 0.00 in0.0 mm 0.00 in0.0 mm
04:00 AM 57.5°F14.2°C 55.2°F12.9°C 92% 5.0 mph N8.0 kmh N 6.0 mph9.7 kmh 29.64 in1003.7 mb 0.00 in0.0 mm 0.00 in0.0 mm 0.00 in0.0 mm
04:05 AM 57.5°F14.2°C 55.2°F12.9°C 92% 5.0 mph N8.0 kmh N 9.0 mph14.5 kmh 29.64 in1003.7 mb 0.00 in0.0 mm 0.00 in0.0 mm 0.00 in0.0 mm
04:10 AM 57.5°F14.2°C 55.2°F12.9°C 92% 4.0 mph N6.4 kmh N 10.0 mph16.1 kmh 29.65 in1004.1 mb 0.00 in0.0 mm 0.00 in0.0 mm 0.00 in0.0 mm
04:15 AM 57.6°F14.2°C 55.3°F12.9°C 92% 5.0 mph N8.0 kmh N 6.0 mph9.7 kmh 29.64 in1003.7 mb 0.00 in0.0 mm 0.00 in0.0 mm 0.00 in0.0 mm
04:20 AM 57.6°F14.2°C 55.3°F12.9°C 92% 4.0 mph N6.4 kmh N 8.0 mph12.9 kmh 29.64 in1003.7 mb 0.00 in0.0 mm 0.00 in0.0 mm 0.00 in0.0 mm
04:25 AM 57.6°F14.2°C 55.3°F12.9°C 92% 5.0 mph N8.0 kmh N 10.0 mph16.1 kmh 29.64 in1003.7 mb 0.00 in0.0 mm 0.00 in0.0 mm 0.00 in0.0 mm
04:30 AM 57.6°F14.2°C 55.3°F12.9°C 92% 5.0 mph N8.0 kmh N 8.0 mph12.9 kmh 29.64 in1003.7 mb 0.00 in0.0 mm 0.00 in0.0 mm 0.00 in0.0 mm
04:35 AM 57.5°F14.2°C 55.2°F12.9°C 92% 5.0 mph N8.0 kmh N 11.0 mph17.7 kmh 29.63 in1003.4 mb 0.00 in0.0 mm 0.00 in0.0 mm 0.00 in0.0 mm
04:40 AM 57.5°F14.2°C 54.9°F12.7°C 91% 3.0 mph N4.8 kmh N 12.0 mph19.3 kmh 29.63 in1003.4 mb 0.00 in0.0 mm 0.00 in0.0 mm 0.00 in0.0 mm
04:45 AM 57.5°F14.2°C 54.9°F12.7°C 91% 7.0 mph N11.3 kmh N 7.0 mph11.3 kmh 29.63 in1003.4 mb 0.00 in0.0 mm 0.00 in0.0 mm 0.00 in0.0 mm
04:50 AM 57.7°F14.3°C 54.8°F12.7°C 90% 3.0 mph N4.8 kmh N 11.0 mph17.7 kmh 29.63 in1003.4 mb 0.00 in0.0 mm 0.00 in0.0 mm 0.00 in0.0 mm
04:55 AM 57.7°F14.3°C 54.8°F12.7°C 90% 7.0 mph N11.3 kmh N 11.0 mph17.7 kmh 29.63 in1003.4 mb 0.00 in0.0 mm 0.00 in0.0 mm 0.00 in0.0 mm
05:00 AM 57.7°F14.3°C 54.8°F12.7°C 90% 4.0 mph N6.4 kmh N 9.0 mph14.5 kmh 29.63 in1003.4 mb 0.00 in0.0 mm 0.00 in0.0 mm 0.00 in0.0 mm
05:05 AM 57.8°F14.3°C 54.9°F12.7°C 90% 6.0 mph N9.7 kmh N 9.0 mph14.5 kmh 29.63 in1003.4 mb 0.00 in0.0 mm 0.00 in0.0 mm 0.00 in0.0 mm
05:10 AM 57.8°F14.3°C 54.9°F12.7°C 90% 3.0 mph N4.8 kmh N 10.0 mph16.1 kmh 29.63 in1003.4 mb 0.00 in0.0 mm 0.00 in0.0 mm 0.00 in0.0 mm
05:15 AM 57.8°F14.3°C 54.9°F12.7°C 90% 6.0 mph N9.7 kmh N 7.0 mph11.3 kmh 29.63 in1003.4 mb 0.00 in0.0 mm 0.00 in0.0 mm 0.00 in0.0 mm
05:20 AM 57.8°F14.3°C 54.6°F12.6°C 89% 7.0 mph N11.3 kmh N 11.0 mph17.7 kmh 29.62 in1003.0 mb 0.00 in0.0 mm 0.00 in0.0 mm 0.00 in0.0 mm
05:25 AM 57.8°F14.3°C 54.6°F12.6°C 89% 4.0 mph N6.4 kmh N 11.0 mph17.7 kmh 29.63 in1003.4 mb 0.00 in0.0 mm 0.00 in0.0 mm 0.00 in0.0 mm
05:30 AM 57.9°F14.4°C 54.7°F12.6°C 89% 6.0 mph N9.7 kmh N 7.0 mph11.3 kmh 29.62 in1003.0 mb 0.00 in0.0 mm 0.00 in0.0 mm 0.00 in0.0 mm
05:35 AM 58.1°F14.5°C 54.9°F12.7°C 89% 9.0 mph N14.5 kmh N 13.0 mph20.9 kmh 29.63 in1003.4 mb 0.00 in0.0 mm 0.00 in0.0 mm 0.00 in0.0 mm
05:40 AM 58.3°F14.6°C 54.8°F12.7°C 88% 4.0 mph N6.4 kmh N 13.0 mph20.9 kmh 29.62 in1003.0 mb 0.00 in0.0 mm 0.00 in0.0 mm 0.00 in0.0 mm
05:45 AM 58.4°F14.7°C 54.9°F12.7°C 88% 8.0 mph N12.9 kmh N 12.0 mph19.3 kmh 29.62 in1003.0 mb 0.00 in0.0 mm 0.00 in0.0 mm 0.00 in0.0 mm
05:50 AM 58.6°F14.8°C 55.1°F12.8°C 88% 3.0 mph N4.8 kmh N 13.0 mph20.9 kmh 29.62 in1003.0 mb 0.00 in0.0 mm 0.00 in0.0 mm 0.00 in0.0 mm
05:55 AM 58.7°F14.8°C 54.9°F12.7°C 87% 5.0 mph N8.0 kmh N 14.0 mph22.5 kmh 29.62 in1003.0 mb 0.00 in0.0 mm 0.00 in0.0 mm 0.00 in0.0 mm
06:00 AM 58.8°F14.9°C 55.0°F12.8°C 87% 7.0 mph N11.3 kmh N 7.0 mph11.3 kmh 29.62 in1003.0 mb 0.00 in0.0 mm 0.00 in0.0 mm 0.00 in0.0 mm
06:05 AM 58.9°F14.9°C 55.0°F12.8°C 87% 4.0 mph N6.4 kmh N 11.0 mph17.7 kmh 29.62 in1003.0 mb 0.00 in0.0 mm 0.00 in0.0 mm 0.00 in0.0 mm
06:10 AM 58.9°F14.9°C 55.4°F13.0°C 88% 5.0 mph N8.0 kmh N 12.0 mph19.3 kmh 29.62 in1003.0 mb 0.00 in0.0 mm 0.00 in0.0 mm 0.00 in0.0 mm
06:15 AM 59.0°F15.0°C 55.5°F13.1°C 88% 6.0 mph N9.7 kmh N 11.0 mph17.7 kmh 29.62 in1003.0 mb 0.00 in0.0 mm 0.00 in0.0 mm 0.00 in0.0 mm
06:20 AM 59.1°F15.1°C 55.6°F13.1°C 88% 10.0 mph N16.1 kmh N 14.0 mph22.5 kmh 29.62 in1003.0 mb 0.00 in0.0 mm 0.00 in0.0 mm 0.00 in0.0 mm
06:25 AM 59.2°F15.1°C 55.7°F13.2°C 88% 9.0 mph N14.5 kmh N 15.0 mph24.1 kmh 29.62 in1003.0 mb 0.00 in0.0 mm 0.00 in0.0 mm 0.00 in0.0 mm
06:30 AM 59.3°F15.2°C 55.8°F13.2°C 88% 8.0 mph N12.9 kmh N 10.0 mph16.1 kmh 29.62 in1003.0 mb 0.00 in0.0 mm 0.00 in0.0 mm 0.00 in0.0 mm
06:35 AM 59.3°F15.2°C 55.8°F13.2°C 88% 5.0 mph N8.0 kmh N 14.0 mph22.5 kmh 29.63 in1003.4 mb 0.00 in0.0 mm 0.00 in0.0 mm 0.00 in0.0 mm
06:40 AM 59.4°F15.2°C 55.9°F13.3°C 88% 12.0 mph N19.3 kmh N 14.0 mph22.5 kmh 29.62 in1003.0 mb 0.00 in0.0 mm 0.00 in0.0 mm 0.00 in0.0 mm
06:45 AM 59.4°F15.2°C 55.9°F13.3°C 88% 6.0 mph N9.7 kmh N 9.0 mph14.5 kmh 29.63 in1003.4 mb 0.00 in0.0 mm 0.00 in0.0 mm 0.00 in0.0 mm
06:50 AM 59.5°F15.3°C 56.0°F13.3°C 88% 6.0 mph N9.7 kmh N 12.0 mph19.3 kmh 29.63 in1003.4 mb 0.00 in0.0 mm 0.00 in0.0 mm 0.00 in0.0 mm
06:55 AM 59.5°F15.3°C 56.0°F13.3°C 88% 6.0 mph N9.7 kmh N 16.0 mph25.7 kmh 29.63 in1003.4 mb 0.00 in0.0 mm 0.00 in0.0 mm 0.00 in0.0 mm
07:00 AM 59.5°F15.3°C 55.6°F13.1°C 87% 10.0 mph N16.1 kmh N 12.0 mph19.3 kmh 29.63 in1003.4 mb 0.00 in0.0 mm 0.00 in0.0 mm 0.00 in0.0 mm
07:05 AM 59.5°F15.3°C 55.6°F13.1°C 87% 7.0 mph N11.3 kmh N 16.0 mph25.7 kmh 29.63 in1003.4 mb 0.00 in0.0 mm 0.00 in0.0 mm 0.00 in0.0 mm
07:10 AM 59.6°F15.3°C 55.7°F13.2°C 87% 3.0 mph N4.8 kmh N 16.0 mph25.7 kmh 29.63 in1003.4 mb 0.00 in0.0 mm 0.00 in0.0 mm 0.00 in0.0 mm
07:15 AM 59.6°F15.3°C 55.7°F13.2°C 87% 4.0 mph N6.4 kmh N 8.0 mph12.9 kmh 29.63 in1003.4 mb 0.00 in0.0 mm 0.00 in0.0 mm 0.00 in0.0 mm
07:20 AM 59.6°F15.3°C 55.7°F13.2°C 87% 6.0 mph N9.7 kmh N 14.0 mph22.5 kmh 29.63 in1003.4 mb 0.00 in0.0 mm 0.00 in0.0 mm 0.00 in0.0 mm
07:25 AM 59.6°F15.3°C 55.7°F13.2°C 87% 4.0 mph N6.4 kmh N 14.0 mph22.5 kmh 29.63 in1003.4 mb 0.00 in0.0 mm 0.00 in0.0 mm 0.00 in0.0 mm
07:30 AM 59.6°F15.3°C 55.7°F13.2°C 87% 3.0 mph N4.8 kmh N 7.0 mph11.3 kmh 29.63 in1003.4 mb 0.00 in0.0 mm 0.00 in0.0 mm 0.00 in0.0 mm
07:35 AM 59.6°F15.3°C 55.7°F13.2°C 87% 5.0 mph N8.0 kmh N 9.0 mph14.5 kmh 29.64 in1003.7 mb 0.00 in0.0 mm 0.00 in0.0 mm 0.00 in0.0 mm
07:40 AM 59.6°F15.3°C 55.7°F13.2°C 87% 3.0 mph N4.8 kmh N 9.0 mph14.5 kmh 29.64 in1003.7 mb 0.00 in0.0 mm 0.00 in0.0 mm 0.00 in0.0 mm
07:45 AM 59.6°F15.3°C 55.7°F13.2°C 87% 8.0 mph N12.9 kmh N 8.0 mph12.9 kmh 29.64 in1003.7 mb 0.01 in0.3 mm 0.12 in3.0 mm 0.01 in0.3 mm
07:50 AM 59.5°F15.3°C 56.0°F13.3°C 88% 9.0 mph N14.5 kmh N 10.0 mph16.1 kmh 29.64 in1003.7 mb 0.05 in1.3 mm 0.48 in12.2 mm 0.05 in1.3 mm
07:55 AM 59.2°F15.1°C 56.0°F13.3°C 89% 4.0 mph N6.4 kmh N 12.0 mph19.3 kmh 29.64 in1003.7 mb 0.07 in1.8 mm 0.24 in6.1 mm 0.07 in1.8 mm
08:00 AM 58.9°F14.9°C 56.0°F13.3°C 90% 1.0 mph N1.6 kmh N 3.0 mph4.8 kmh 29.64 in1003.7 mb 0.08 in2.0 mm 0.01 in0.3 mm 0.08 in2.0 mm
08:05 AM 58.7°F14.8°C 56.1°F13.4°C 91% 3.0 mph N4.8 kmh N 5.0 mph8.0 kmh 29.64 in1003.7 mb 0.12 in3.0 mm 0.48 in12.2 mm 0.12 in3.0 mm
08:10 AM 58.5°F14.7°C 56.2°F13.4°C 92% 2.0 mph N3.2 kmh N 5.0 mph8.0 kmh 29.64 in1003.7 mb 0.12 in3.0 mm 0.00 in0.0 mm 0.12 in3.0 mm
08:15 AM 58.3°F14.6°C 56.0°F13.3°C 92% 1.0 mph N1.6 kmh N 3.0 mph4.8 kmh 29.64 in1003.7 mb 0.12 in3.0 mm 0.00 in0.0 mm 0.12 in3.0 mm
08:20 AM 58.2°F14.6°C 55.9°F13.3°C 92% 1.0 mph N1.6 kmh N 4.0 mph6.4 kmh 29.64 in1003.7 mb 0.12 in3.0 mm 0.00 in0.0 mm 0.12 in3.0 mm
08:25 AM 58.2°F14.6°C 56.2°F13.4°C 93% 1.0 mph N1.6 kmh N 6.0 mph9.7 kmh 29.64 in1003.7 mb 0.12 in3.0 mm 0.00 in0.0 mm 0.12 in3.0 mm
08:30 AM 58.2°F14.6°C 56.2°F13.4°C 93% 4.0 mph N6.4 kmh N 5.0 mph8.0 kmh 29.64 in1003.7 mb 0.12 in3.0 mm 0.00 in0.0 mm 0.12 in3.0 mm
08:35 AM 58.3°F14.6°C 56.3°F13.5°C 93% 4.0 mph N6.4 kmh N 7.0 mph11.3 kmh 29.64 in1003.7 mb 0.12 in3.0 mm 0.00 in0.0 mm 0.12 in3.0 mm
08:40 AM 58.4°F14.7°C 56.4°F13.6°C 93% 7.0 mph N11.3 kmh N 10.0 mph16.1 kmh 29.64 in1003.7 mb 0.12 in3.0 mm 0.00 in0.0 mm 0.12 in3.0 mm
08:45 AM 58.5°F14.7°C 56.5°F13.6°C 93% 6.0 mph N9.7 kmh N 7.0 mph11.3 kmh 29.65 in1004.1 mb 0.11 in2.8 mm 0.00 in0.0 mm 0.12 in3.0 mm
08:50 AM 58.6°F14.8°C 56.6°F13.7°C 93% 4.0 mph N6.4 kmh N 9.0 mph14.5 kmh 29.65 in1004.1 mb 0.12 in3.0 mm 0.12 in3.0 mm 0.13 in3.3 mm
08:55 AM 58.6°F14.8°C 56.9°F13.8°C 94% 5.0 mph N8.0 kmh N 9.0 mph14.5 kmh 29.65 in1004.1 mb 0.12 in3.0 mm 0.00 in0.0 mm 0.13 in3.3 mm
09:00 AM 58.6°F14.8°C 56.9°F13.8°C 94% 4.0 mph N6.4 kmh N 6.0 mph9.7 kmh 29.65 in1004.1 mb 0.06 in1.5 mm 0.00 in0.0 mm 0.13 in3.3 mm
09:05 AM 58.6°F14.8°C 56.9°F13.8°C 94% 3.0 mph N4.8 kmh N 7.0 mph11.3 kmh 29.65 in1004.1 mb 0.08 in2.0 mm 0.24 in6.1 mm 0.15 in3.8 mm
09:10 AM 58.6°F14.8°C 56.9°F13.8°C 94% 4.0 mph N6.4 kmh N 7.0 mph11.3 kmh 29.65 in1004.1 mb 0.10 in2.5 mm 0.24 in6.1 mm 0.17 in4.3 mm
09:15 AM 58.5°F14.7°C 56.8°F13.8°C 94% 2.0 mph N3.2 kmh N 2.0 mph3.2 kmh 29.65 in1004.1 mb 0.10 in2.5 mm 0.00 in0.0 mm 0.17 in4.3 mm
09:20 AM 58.5°F14.7°C 57.1°F13.9°C 95% 3.0 mph N4.8 kmh N 6.0 mph9.7 kmh 29.65 in1004.1 mb 0.13 in3.3 mm 0.36 in9.1 mm 0.20 in5.1 mm
09:25 AM 58.4°F14.7°C 57.0°F13.9°C 95% 3.0 mph N4.8 kmh N 6.0 mph9.7 kmh 29.65 in1004.1 mb 0.14 in3.6 mm 0.12 in3.0 mm 0.21 in5.3 mm
09:30 AM 58.4°F14.7°C 57.0°F13.9°C 95% 3.0 mph N4.8 kmh N 3.0 mph4.8 kmh 29.65 in1004.1 mb 0.14 in3.6 mm 0.00 in0.0 mm 0.21 in5.3 mm
09:35 AM 58.4°F14.7°C 57.0°F13.9°C 95% 3.0 mph N4.8 kmh N 5.0 mph8.0 kmh 29.65 in1004.1 mb 0.15 in3.8 mm 0.12 in3.0 mm 0.22 in5.6 mm
09:40 AM 58.4°F14.7°C 57.3°F14.1°C 96% 2.0 mph N3.2 kmh N 6.0 mph9.7 kmh 29.65 in1004.1 mb 0.15 in3.8 mm 0.00 in0.0 mm 0.22 in5.6 mm
09:45 AM 58.4°F14.7°C 57.3°F14.1°C 96% 2.0 mph N3.2 kmh N 3.0 mph4.8 kmh 29.65 in1004.1 mb 0.15 in3.8 mm 0.00 in0.0 mm 0.22 in5.6 mm
09:50 AM 58.5°F14.7°C 57.4°F14.1°C 96% 2.0 mph N3.2 kmh N 4.0 mph6.4 kmh 29.65 in1004.1 mb 0.15 in3.8 mm 0.00 in0.0 mm 0.22 in5.6 mm
09:55 AM 58.5°F14.7°C 57.4°F14.1°C 96% 1.0 mph N1.6 kmh N 5.0 mph8.0 kmh 29.65 in1004.1 mb 0.16 in4.1 mm 0.12 in3.0 mm 0.23 in5.8 mm
10:00 AM 58.6°F14.8°C 57.5°F14.2°C 96% 2.0 mph N3.2 kmh N 2.0 mph3.2 kmh 29.65 in1004.1 mb 0.14 in3.6 mm 0.00 in0.0 mm 0.23 in5.8 mm
10:05 AM 58.6°F14.8°C 57.5°F14.2°C 96% 4.0 mph N6.4 kmh N 6.0 mph9.7 kmh 29.65 in1004.1 mb 0.14 in3.6 mm 0.00 in0.0 mm 0.23 in5.8 mm
10:10 AM 58.7°F14.8°C 57.6°F14.2°C 96% 3.0 mph N4.8 kmh N 6.0 mph9.7 kmh 29.66 in1004.4 mb 0.14 in3.6 mm 0.00 in0.0 mm 0.23 in5.8 mm
10:15 AM 58.8°F14.9°C 57.7°F14.3°C 96% Calm Calm 2.0 mph3.2 kmh 29.66 in1004.4 mb 0.07 in1.8 mm 0.00 in0.0 mm 0.23 in5.8 mm
10:20 AM 58.8°F14.9°C 57.7°F14.3°C 96% Calm Calm 4.0 mph6.4 kmh 29.66 in1004.4 mb 0.08 in2.0 mm 0.12 in3.0 mm 0.24 in6.1 mm
10:25 AM 58.9°F14.9°C 58.1°F14.5°C 97% 3.0 mph N4.8 kmh N 4.0 mph6.4 kmh 29.66 in1004.4 mb 0.10 in2.5 mm 0.24 in6.1 mm 0.26 in6.6 mm
10:30 AM 58.9°F14.9°C 57.8°F14.3°C 96% Calm Calm 1.0 mph1.6 kmh 29.66 in1004.4 mb 0.07 in1.8 mm 0.00 in0.0 mm 0.26 in6.6 mm
10:35 AM 58.9°F14.9°C 57.8°F14.3°C 96% 1.0 mph N1.6 kmh N 3.0 mph4.8 kmh 29.66 in1004.4 mb 0.08 in2.0 mm 0.12 in3.0 mm 0.27 in6.9 mm
10:40 AM 58.9°F14.9°C 57.8°F14.3°C 96% 1.0 mph N1.6 kmh N 3.0 mph4.8 kmh 29.66 in1004.4 mb 0.09 in2.3 mm 0.12 in3.0 mm 0.28 in7.1 mm
10:45 AM 58.9°F14.9°C 57.8°F14.3°C 96% 1.0 mph N1.6 kmh N 1.0 mph1.6 kmh 29.65 in1004.1 mb 0.09 in2.3 mm 0.00 in0.0 mm 0.28 in7.1 mm
10:50 AM 58.9°F14.9°C 58.1°F14.5°C 97% Calm Calm 2.0 mph3.2 kmh 29.66 in1004.4 mb 0.10 in2.5 mm 0.12 in3.0 mm 0.29 in7.4 mm
10:55 AM 59.0°F15.0°C 58.2°F14.6°C 97% 2.0 mph N3.2 kmh N 4.0 mph6.4 kmh 29.66 in1004.4 mb 0.10 in2.5 mm 0.00 in0.0 mm 0.29 in7.4 mm
11:00 AM 58.9°F14.9°C 57.8°F14.3°C 96% Calm Calm 2.0 mph3.2 kmh 29.66 in1004.4 mb 0.10 in2.5 mm 0.00 in0.0 mm 0.29 in7.4 mm
11:05 AM 59.0°F15.0°C 58.2°F14.6°C 97% 2.0 mph N3.2 kmh N 5.0 mph8.0 kmh 29.66 in1004.4 mb 0.12 in3.0 mm 0.24 in6.1 mm 0.31 in7.9 mm
11:10 AM 59.1°F15.1°C 58.3°F14.6°C 97% 1.0 mph N1.6 kmh N 5.0 mph8.0 kmh 29.66 in1004.4 mb 0.13 in3.3 mm 0.12 in3.0 mm 0.32 in8.1 mm
11:15 AM 59.1°F15.1°C 58.3°F14.6°C 97% Calm Calm -- 29.66 in1004.4 mb 0.13 in3.3 mm 0.00 in0.0 mm 0.32 in8.1 mm
11:20 AM 59.3°F15.2°C 58.5°F14.7°C 97% 2.0 mph N3.2 kmh N 3.0 mph4.8 kmh 29.66 in1004.4 mb 0.14 in3.6 mm 0.12 in3.0 mm 0.33 in8.4 mm
11:25 AM 59.3°F15.2°C 58.5°F14.7°C 97% 4.0 mph N6.4 kmh N 4.0 mph6.4 kmh 29.66 in1004.4 mb 0.16 in4.1 mm 0.24 in6.1 mm 0.35 in8.9 mm
11:30 AM 59.5°F15.3°C 58.7°F14.8°C 97% Calm Calm 3.0 mph4.8 kmh 29.66 in1004.4 mb 0.13 in3.3 mm 0.00 in0.0 mm 0.35 in8.9 mm
11:35 AM 59.6°F15.3°C 58.8°F14.9°C 97% 3.0 mph N4.8 kmh N 7.0 mph11.3 kmh 29.66 in1004.4 mb 0.14 in3.6 mm 0.12 in3.0 mm 0.36 in9.1 mm
11:40 AM 59.6°F15.3°C 58.8°F14.9°C 97% 3.0 mph N4.8 kmh N 7.0 mph11.3 kmh 29.66 in1004.4 mb 0.14 in3.6 mm 0.00 in0.0 mm 0.36 in9.1 mm
11:45 AM 59.8°F15.4°C 59.0°F15.0°C 97% 1.0 mph N1.6 kmh N 1.0 mph1.6 kmh 29.66 in1004.4 mb 0.11 in2.8 mm 0.00 in0.0 mm 0.36 in9.1 mm
11:50 AM 60.2°F15.7°C 59.6°F15.3°C 98% 5.0 mph N8.0 kmh N 7.0 mph11.3 kmh 29.66 in1004.4 mb 0.11 in2.8 mm 0.00 in0.0 mm 0.36 in9.1 mm
11:55 AM 60.4°F15.8°C 59.6°F15.3°C 97% 2.0 mph N3.2 kmh N 7.0 mph11.3 kmh 29.66 in1004.4 mb 0.11 in2.8 mm 0.00 in0.0 mm 0.36 in9.1 mm
12:00 PM 60.9°F16.1°C 60.3°F15.7°C 98% 2.0 mph N3.2 kmh N 4.0 mph6.4 kmh 29.66 in1004.4 mb 0.09 in2.3 mm 0.00 in0.0 mm 0.36 in9.1 mm
12:05 PM 61.2°F16.2°C 60.4°F15.8°C 97% 1.0 mph N1.6 kmh N 6.0 mph9.7 kmh 29.66 in1004.4 mb 0.09 in2.3 mm 0.00 in0.0 mm 0.36 in9.1 mm
12:10 PM 61.3°F16.3°C 60.4°F15.8°C 97% 3.0 mph N4.8 kmh N 6.0 mph9.7 kmh 29.66 in1004.4 mb 0.09 in2.3 mm 0.00 in0.0 mm 0.36 in9.1 mm
12:15 PM 61.5°F16.4°C 60.4°F15.8°C 96% 2.0 mph N3.2 kmh N 2.0 mph3.2 kmh 29.66 in1004.4 mb 0.05 in1.3 mm 0.00 in0.0 mm 0.36 in9.1 mm
12:20 PM 61.6°F16.4°C 60.2°F15.7°C 95% 2.0 mph N3.2 kmh N 5.0 mph8.0 kmh 29.66 in1004.4 mb 0.05 in1.3 mm 0.00 in0.0 mm 0.36 in9.1 mm
12:25 PM 61.8°F16.6°C 60.4°F15.8°C 95% 1.0 mph N1.6 kmh N 5.0 mph8.0 kmh 29.66 in1004.4 mb 0.05 in1.3 mm 0.00 in0.0 mm 0.36 in9.1 mm
12:30 PM 62.0°F16.7°C 60.3°F15.7°C 94% 2.0 mph N3.2 kmh N 3.0 mph4.8 kmh 29.67 in1004.7 mb 0.01 in0.3 mm 0.00 in0.0 mm 0.36 in9.1 mm
12:35 PM 62.1°F16.7°C 60.1°F15.6°C 93% 2.0 mph N3.2 kmh N 5.0 mph8.0 kmh 29.67 in1004.7 mb 0.01 in0.3 mm 0.00 in0.0 mm 0.36 in9.1 mm
12:40 PM 62.2°F16.8°C 60.2°F15.7°C 93% 3.0 mph N4.8 kmh N 5.0 mph8.0 kmh 29.67 in1004.7 mb 0.01 in0.3 mm 0.00 in0.0 mm 0.36 in9.1 mm
12:45 PM 62.2°F16.8°C 59.6°F15.3°C 91% 1.0 mph N1.6 kmh N 2.0 mph3.2 kmh 29.67 in1004.7 mb 0.00 in0.0 mm 0.00 in0.0 mm 0.36 in9.1 mm
12:50 PM 62.3°F16.8°C 59.6°F15.3°C 91% 2.0 mph N3.2 kmh N 5.0 mph8.0 kmh 29.68 in1005.1 mb 0.00 in0.0 mm 0.00 in0.0 mm 0.36 in9.1 mm
12:55 PM 62.3°F16.8°C 59.6°F15.3°C 91% Calm Calm 5.0 mph8.0 kmh 29.68 in1005.1 mb 0.00 in0.0 mm 0.00 in0.0 mm 0.36 in9.1 mm
01:00 PM 62.4°F16.9°C 59.7°F15.4°C 91% Calm Calm 1.0 mph1.6 kmh 29.68 in1005.1 mb 0.00 in0.0 mm 0.00 in0.0 mm 0.36 in9.1 mm
01:05 PM 62.6°F17.0°C 59.9°F15.5°C 91% 3.0 mph N4.8 kmh N 5.0 mph8.0 kmh 29.68 in1005.1 mb 0.00 in0.0 mm 0.00 in0.0 mm 0.36 in9.1 mm
01:10 PM 62.8°F17.1°C 59.8°F15.4°C 90% 4.0 mph N6.4 kmh N 5.0 mph8.0 kmh 29.68 in1005.1 mb 0.00 in0.0 mm 0.00 in0.0 mm 0.36 in9.1 mm
01:15 PM 63.1°F17.3°C 60.1°F15.6°C 90% 2.0 mph N3.2 kmh N 4.0 mph6.4 kmh 29.68 in1005.1 mb 0.00 in0.0 mm 0.00 in0.0 mm 0.36 in9.1 mm
01:20 PM 63.3°F17.4°C 59.7°F15.4°C 88% 6.0 mph N9.7 kmh N 6.0 mph9.7 kmh 29.68 in1005.1 mb 0.00 in0.0 mm 0.00 in0.0 mm 0.36 in9.1 mm
01:25 PM 63.6°F17.6°C 60.0°F15.6°C 88% 2.0 mph N3.2 kmh N 7.0 mph11.3 kmh 29.68 in1005.1 mb 0.00 in0.0 mm 0.00 in0.0 mm 0.36 in9.1 mm
01:30 PM 64.3°F17.9°C 60.7°F15.9°C 88% 2.0 mph N3.2 kmh N 4.0 mph6.4 kmh 29.68 in1005.1 mb 0.00 in0.0 mm 0.00 in0.0 mm 0.36 in9.1 mm
01:35 PM 64.9°F18.3°C 60.6°F15.9°C 86% 4.0 mph N6.4 kmh N 7.0 mph11.3 kmh 29.68 in1005.1 mb 0.00 in0.0 mm 0.00 in0.0 mm 0.36 in9.1 mm
01:40 PM 65.0°F18.3°C 60.1°F15.6°C 84% 3.0 mph N4.8 kmh N 8.0 mph12.9 kmh 29.68 in1005.1 mb 0.00 in0.0 mm 0.00 in0.0 mm 0.36 in9.1 mm
01:45 PM 65.1°F18.4°C 60.2°F15.7°C 84% 6.0 mph N9.7 kmh N 6.0 mph9.7 kmh 29.69 in1005.4 mb 0.00 in0.0 mm 0.00 in0.0 mm 0.36 in9.1 mm
01:50 PM 64.8°F18.2°C 60.2°F15.7°C 85% 2.0 mph N3.2 kmh N 9.0 mph14.5 kmh 29.69 in1005.4 mb 0.00 in0.0 mm 0.00 in0.0 mm 0.36 in9.1 mm
01:55 PM 64.7°F18.2°C 60.1°F15.6°C 85% 4.0 mph N6.4 kmh N 9.0 mph14.5 kmh 29.69 in1005.4 mb 0.00 in0.0 mm 0.00 in0.0 mm 0.36 in9.1 mm
02:00 PM 64.5°F18.1°C 59.6°F15.3°C 84% 4.0 mph N6.4 kmh N 6.0 mph9.7 kmh 29.69 in1005.4 mb 0.00 in0.0 mm 0.00 in0.0 mm 0.36 in9.1 mm
02:05 PM 64.6°F18.1°C 59.7°F15.4°C 84% 7.0 mph N11.3 kmh N 10.0 mph16.1 kmh 29.69 in1005.4 mb 0.00 in0.0 mm 0.00 in0.0 mm 0.36 in9.1 mm
02:10 PM 64.5°F18.1°C 59.9°F15.5°C 85% 5.0 mph N8.0 kmh N 10.0 mph16.1 kmh 29.70 in1005.8 mb 0.00 in0.0 mm 0.00 in0.0 mm 0.36 in9.1 mm
02:15 PM 64.4°F18.0°C 59.8°F15.4°C 85% 7.0 mph N11.3 kmh N 8.0 mph12.9 kmh 29.70 in1005.8 mb 0.00 in0.0 mm 0.00 in0.0 mm 0.36 in9.1 mm
02:20 PM 64.4°F18.0°C 59.8°F15.4°C 85% 7.0 mph N11.3 kmh N 10.0 mph16.1 kmh 29.70 in1005.8 mb 0.00 in0.0 mm 0.00 in0.0 mm 0.36 in9.1 mm
02:25 PM 64.5°F18.1°C 59.9°F15.5°C 85% 5.0 mph N8.0 kmh N 10.0 mph16.1 kmh 29.69 in1005.4 mb 0.00 in0.0 mm 0.00 in0.0 mm 0.36 in9.1 mm
02:30 PM 64.9°F18.3°C 60.3°F15.7°C 85% 8.0 mph N12.9 kmh N 8.0 mph12.9 kmh 29.70 in1005.8 mb 0.00 in0.0 mm 0.00 in0.0 mm 0.36 in9.1 mm
02:35 PM 65.0°F18.3°C 60.1°F15.6°C 84% 9.0 mph N14.5 kmh N 9.0 mph14.5 kmh 29.69 in1005.4 mb 0.00 in0.0 mm 0.00 in0.0 mm 0.36 in9.1 mm
02:40 PM 65.0°F18.3°C 60.1°F15.6°C 84% 5.0 mph N8.0 kmh N 9.0 mph14.5 kmh 29.70 in1005.8 mb 0.00 in0.0 mm 0.00 in0.0 mm 0.36 in9.1 mm
02:45 PM 65.1°F18.4°C 59.8°F15.4°C 83% 5.0 mph N8.0 kmh N 10.0 mph16.1 kmh 29.70 in1005.8 mb 0.00 in0.0 mm 0.00 in0.0 mm 0.36 in9.1 mm
02:50 PM 64.9°F18.3°C 60.0°F15.6°C 84% 3.0 mph N4.8 kmh N 10.0 mph16.1 kmh 29.70 in1005.8 mb 0.00 in0.0 mm 0.00 in0.0 mm 0.36 in9.1 mm
02:55 PM 65.1°F18.4°C 60.2°F15.7°C 84% 3.0 mph N4.8 kmh N 10.0 mph16.1 kmh 29.70 in1005.8 mb 0.00 in0.0 mm 0.00 in0.0 mm 0.36 in9.1 mm
03:00 PM 65.3°F18.5°C 60.4°F15.8°C 84% 3.0 mph N4.8 kmh N 4.0 mph6.4 kmh 29.70 in1005.8 mb 0.00 in0.0 mm 0.00 in0.0 mm 0.36 in9.1 mm
03:05 PM 65.5°F18.6°C 60.2°F15.7°C 83% 5.0 mph N8.0 kmh N 9.0 mph14.5 kmh 29.71 in1006.1 mb 0.00 in0.0 mm 0.00 in0.0 mm 0.36 in9.1 mm
03:10 PM 66.0°F18.9°C 60.0°F15.6°C 81% 3.0 mph N4.8 kmh N 12.0 mph19.3 kmh 29.70 in1005.8 mb 0.01 in0.3 mm 0.12 in3.0 mm 0.37 in9.4 mm
03:15 PM 66.5°F19.2°C 59.8°F15.4°C 79% 11.0 mph N17.7 kmh N 11.0 mph17.7 kmh 29.70 in1005.8 mb 0.01 in0.3 mm 0.00 in0.0 mm 0.37 in9.4 mm
03:20 PM 66.9°F19.4°C 60.2°F15.7°C 79% 5.0 mph N8.0 kmh N 11.0 mph17.7 kmh 29.70 in1005.8 mb 0.01 in0.3 mm 0.00 in0.0 mm 0.37 in9.4 mm
03:25 PM 67.5°F19.7°C 60.8°F16.0°C 79% 3.0 mph N4.8 kmh N 11.0 mph17.7 kmh 29.70 in1005.8 mb 0.01 in0.3 mm 0.00 in0.0 mm 0.37 in9.4 mm
03:30 PM 68.1°F20.1°C 60.3°F15.7°C 76% 4.0 mph N6.4 kmh N 4.0 mph6.4 kmh 29.70 in1005.8 mb 0.01 in0.3 mm 0.00 in0.0 mm 0.37 in9.4 mm
03:35 PM 68.1°F20.1°C 60.6°F15.9°C 77% 2.0 mph N3.2 kmh N 6.0 mph9.7 kmh 29.70 in1005.8 mb 0.01 in0.3 mm 0.00 in0.0 mm 0.37 in9.4 mm
03:40 PM 68.1°F20.1°C 60.6°F15.9°C 77% 5.0 mph N8.0 kmh N 10.0 mph16.1 kmh 29.70 in1005.8 mb 0.01 in0.3 mm 0.00 in0.0 mm 0.37 in9.4 mm
03:45 PM 68.1°F20.1°C 60.6°F15.9°C 77% 4.0 mph N6.4 kmh N 5.0 mph8.0 kmh 29.70 in1005.8 mb 0.01 in0.3 mm 0.00 in0.0 mm 0.37 in9.4 mm
03:50 PM 68.3°F20.2°C 60.5°F15.8°C 76% 9.0 mph N14.5 kmh N 13.0 mph20.9 kmh 29.70 in1005.8 mb 0.01 in0.3 mm 0.00 in0.0 mm 0.37 in9.4 mm
03:55 PM 67.9°F19.9°C 60.1°F15.6°C 76% 3.0 mph N4.8 kmh N 13.0 mph20.9 kmh 29.70 in1005.8 mb 0.01 in0.3 mm 0.00 in0.0 mm 0.37 in9.4 mm
04:00 PM 67.6°F19.8°C 60.5°F15.8°C 78% 3.0 mph N4.8 kmh N 5.0 mph8.0 kmh 29.70 in1005.8 mb 0.01 in0.3 mm 0.00 in0.0 mm 0.37 in9.4 mm
04:05 PM 67.4°F19.7°C 59.6°F15.3°C 76% 4.0 mph N6.4 kmh N 8.0 mph12.9 kmh 29.70 in1005.8 mb 0.01 in0.3 mm 0.00 in0.0 mm 0.37 in9.4 mm
04:10 PM 67.4°F19.7°C 59.6°F15.3°C 76% 3.0 mph N4.8 kmh N 8.0 mph12.9 kmh 29.70 in1005.8 mb 0.01 in0.3 mm 0.00 in0.0 mm 0.37 in9.4 mm
04:15 PM 67.8°F19.9°C 60.0°F15.6°C 76% 2.0 mph N3.2 kmh N 5.0 mph8.0 kmh 29.70 in1005.8 mb 0.00 in0.0 mm 0.00 in0.0 mm 0.37 in9.4 mm
04:20 PM 68.4°F20.2°C 60.6°F15.9°C 76% 6.0 mph N9.7 kmh N 9.0 mph14.5 kmh 29.71 in1006.1 mb 0.00 in0.0 mm 0.00 in0.0 mm 0.37 in9.4 mm
04:25 PM 68.9°F20.5°C 60.3°F15.7°C 74% 5.0 mph N8.0 kmh N 9.0 mph14.5 kmh 29.71 in1006.1 mb 0.00 in0.0 mm 0.00 in0.0 mm 0.37 in9.4 mm
04:30 PM 69.3°F20.7°C 59.9°F15.5°C 72% 5.0 mph N8.0 kmh N 6.0 mph9.7 kmh 29.71 in1006.1 mb 0.00 in0.0 mm 0.00 in0.0 mm 0.37 in9.4 mm
04:35 PM 69.4°F20.8°C 61.1°F16.2°C 75% 3.0 mph N4.8 kmh N 9.0 mph14.5 kmh 29.70 in1005.8 mb 0.00 in0.0 mm 0.00 in0.0 mm 0.37 in9.4 mm
04:40 PM 69.7°F20.9°C 60.7°F15.9°C 73% 10.0 mph N16.1 kmh N 11.0 mph17.7 kmh 29.71 in1006.1 mb 0.00 in0.0 mm 0.00 in0.0 mm 0.37 in9.4 mm
04:45 PM 69.8°F21.0°C 59.6°F15.3°C 70% 5.0 mph N8.0 kmh N 7.0 mph11.3 kmh 29.70 in1005.8 mb 0.00 in0.0 mm 0.00 in0.0 mm 0.37 in9.4 mm
04:50 PM 69.7°F20.9°C 59.5°F15.3°C 70% 5.0 mph N8.0 kmh N 9.0 mph14.5 kmh 29.70 in1005.8 mb 0.00 in0.0 mm 0.00 in0.0 mm 0.37 in9.4 mm
04:55 PM 69.6°F20.9°C 59.0°F15.0°C 69% 7.0 mph N11.3 kmh N 9.0 mph14.5 kmh 29.71 in1006.1 mb 0.00 in0.0 mm 0.00 in0.0 mm 0.37 in9.4 mm
05:00 PM 69.4°F20.8°C 59.6°F15.3°C 71% 6.0 mph N9.7 kmh N 10.0 mph16.1 kmh 29.71 in1006.1 mb 0.00 in0.0 mm 0.00 in0.0 mm 0.37 in9.4 mm
05:05 PM 68.8°F20.4°C 59.4°F15.2°C 72% 1.0 mph N1.6 kmh N 10.0 mph16.1 kmh 29.71 in1006.1 mb 0.00 in0.0 mm 0.00 in0.0 mm 0.37 in9.4 mm
05:10 PM 68.6°F20.3°C 58.8°F14.9°C 71% 3.0 mph N4.8 kmh N 10.0 mph16.1 kmh 29.71 in1006.1 mb 0.00 in0.0 mm 0.00 in0.0 mm 0.37 in9.4 mm
05:15 PM 68.6°F20.3°C 58.0°F14.4°C 69% 6.0 mph N9.7 kmh N 6.0 mph9.7 kmh 29.72 in1006.4 mb 0.00 in0.0 mm 0.00 in0.0 mm 0.37 in9.4 mm
05:20 PM 68.8°F20.4°C 58.6°F14.8°C 70% 5.0 mph N8.0 kmh N 9.0 mph14.5 kmh 29.72 in1006.4 mb 0.00 in0.0 mm 0.00 in0.0 mm 0.37 in9.4 mm
05:25 PM 69.2°F20.7°C 59.0°F15.0°C 70% 4.0 mph N6.4 kmh N 9.0 mph14.5 kmh 29.72 in1006.4 mb 0.00 in0.0 mm 0.00 in0.0 mm 0.37 in9.4 mm
05:30 PM 69.4°F20.8°C 59.6°F15.3°C 71% 6.0 mph N9.7 kmh N 6.0 mph9.7 kmh 29.72 in1006.4 mb 0.00 in0.0 mm 0.00 in0.0 mm 0.37 in9.4 mm
05:35 PM 69.2°F20.7°C 59.0°F15.0°C 70% 4.0 mph N6.4 kmh N 9.0 mph14.5 kmh 29.72 in1006.4 mb 0.00 in0.0 mm 0.00 in0.0 mm 0.37 in9.4 mm
05:40 PM 68.6°F20.3°C 58.4°F14.7°C 70% 6.0 mph N9.7 kmh N 9.0 mph14.5 kmh 29.72 in1006.4 mb 0.00 in0.0 mm 0.00 in0.0 mm 0.37 in9.4 mm
05:45 PM 68.4°F20.2°C 59.0°F15.0°C 72% 6.0 mph N9.7 kmh N 7.0 mph11.3 kmh 29.72 in1006.4 mb 0.00 in0.0 mm 0.00 in0.0 mm 0.37 in9.4 mm
05:50 PM 68.4°F20.2°C 59.4°F15.2°C 73% 3.0 mph N4.8 kmh N 9.0 mph14.5 kmh 29.72 in1006.4 mb 0.00 in0.0 mm 0.00 in0.0 mm 0.37 in9.4 mm
05:55 PM 68.5°F20.3°C 59.5°F15.3°C 73% 1.0 mph N1.6 kmh N 9.0 mph14.5 kmh 29.72 in1006.4 mb 0.00 in0.0 mm 0.00 in0.0 mm 0.37 in9.4 mm
06:00 PM 68.4°F20.2°C 59.4°F15.2°C 73% 4.0 mph N6.4 kmh N 6.0 mph9.7 kmh 29.72 in1006.4 mb 0.00 in0.0 mm 0.00 in0.0 mm 0.37 in9.4 mm
06:05 PM 68.2°F20.1°C 59.2°F15.1°C 73% 7.0 mph N11.3 kmh N 8.0 mph12.9 kmh 29.72 in1006.4 mb 0.00 in0.0 mm 0.00 in0.0 mm 0.37 in9.4 mm
06:10 PM 68.0°F20.0°C 59.0°F15.0°C 73% 5.0 mph N8.0 kmh N 9.0 mph14.5 kmh 29.73 in1006.8 mb 0.00 in0.0 mm 0.00 in0.0 mm 0.37 in9.4 mm
06:15 PM 67.9°F19.9°C 59.3°F15.2°C 74% 2.0 mph N3.2 kmh N 3.0 mph4.8 kmh 29.73 in1006.8 mb 0.00 in0.0 mm 0.00 in0.0 mm 0.37 in9.4 mm
06:20 PM 67.7°F19.8°C 59.9°F15.5°C 76% 5.0 mph N8.0 kmh N 11.0 mph17.7 kmh 29.73 in1006.8 mb 0.00 in0.0 mm 0.00 in0.0 mm 0.37 in9.4 mm
06:25 PM 67.4°F19.7°C 60.0°F15.6°C 77% 3.0 mph N4.8 kmh N 11.0 mph17.7 kmh 29.73 in1006.8 mb 0.00 in0.0 mm 0.00 in0.0 mm 0.37 in9.4 mm
06:30 PM 67.0°F19.4°C 59.6°F15.3°C 77% 3.0 mph N4.8 kmh N 3.0 mph4.8 kmh 29.73 in1006.8 mb 0.00 in0.0 mm 0.00 in0.0 mm 0.37 in9.4 mm
06:35 PM 66.8°F19.3°C 59.7°F15.4°C 78% 8.0 mph N12.9 kmh N 8.0 mph12.9 kmh 29.73 in1006.8 mb 0.00 in0.0 mm 0.00 in0.0 mm 0.37 in9.4 mm
06:40 PM 66.7°F19.3°C 59.6°F15.3°C 78% 4.0 mph N6.4 kmh N 10.0 mph16.1 kmh 29.73 in1006.8 mb 0.00 in0.0 mm 0.00 in0.0 mm 0.37 in9.4 mm
06:45 PM 66.6°F19.2°C 59.5°F15.3°C 78% 2.0 mph N3.2 kmh N 4.0 mph6.4 kmh 29.74 in1007.1 mb 0.00 in0.0 mm 0.00 in0.0 mm 0.37 in9.4 mm
06:50 PM 66.6°F19.2°C 59.5°F15.3°C 78% 5.0 mph N8.0 kmh N 8.0 mph12.9 kmh 29.74 in1007.1 mb 0.00 in0.0 mm 0.00 in0.0 mm 0.37 in9.4 mm
06:55 PM 66.3°F19.1°C 59.2°F15.1°C 78% 4.0 mph N6.4 kmh N 8.0 mph12.9 kmh 29.73 in1006.8 mb 0.00 in0.0 mm 0.00 in0.0 mm 0.37 in9.4 mm
07:00 PM 66.2°F19.0°C 59.5°F15.3°C 79% 3.0 mph N4.8 kmh N 3.0 mph4.8 kmh 29.73 in1006.8 mb 0.00 in0.0 mm 0.00 in0.0 mm 0.37 in9.4 mm
07:05 PM 66.1°F18.9°C 59.8°F15.4°C 80% 2.0 mph N3.2 kmh N 8.0 mph12.9 kmh 29.73 in1006.8 mb 0.00 in0.0 mm 0.00 in0.0 mm 0.37 in9.4 mm
07:10 PM 65.9°F18.8°C 59.6°F15.3°C 80% 2.0 mph N3.2 kmh N 8.0 mph12.9 kmh 29.73 in1006.8 mb 0.00 in0.0 mm 0.00 in0.0 mm 0.37 in9.4 mm
07:15 PM 65.8°F18.8°C 60.2°F15.7°C 82% 4.0 mph N6.4 kmh N 4.0 mph6.4 kmh 29.73 in1006.8 mb 0.00 in0.0 mm 0.00 in0.0 mm 0.37 in9.4 mm
07:20 PM 65.6°F18.7°C 60.0°F15.6°C 82% 4.0 mph N6.4 kmh N 8.0 mph12.9 kmh 29.73 in1006.8 mb 0.00 in0.0 mm 0.00 in0.0 mm 0.37 in9.4 mm
07:25 PM 65.3°F18.5°C 59.7°F15.4°C 82% 3.0 mph N4.8 kmh N 8.0 mph12.9 kmh 29.74 in1007.1 mb 0.00 in0.0 mm 0.00 in0.0 mm 0.37 in9.4 mm
07:30 PM 65.1°F18.4°C 59.5°F15.3°C 82% 3.0 mph N4.8 kmh N 3.0 mph4.8 kmh 29.73 in1006.8 mb 0.00 in0.0 mm 0.00 in0.0 mm 0.37 in9.4 mm
07:35 PM 64.8°F18.2°C 59.5°F15.3°C 83% 4.0 mph N6.4 kmh N 7.0 mph11.3 kmh 29.73 in1006.8 mb 0.00 in0.0 mm 0.00 in0.0 mm 0.37 in9.4 mm
07:40 PM 64.6°F18.1°C 59.7°F15.4°C 84% 4.0 mph N6.4 kmh N 7.0 mph11.3 kmh 29.73 in1006.8 mb 0.00 in0.0 mm 0.00 in0.0 mm 0.37 in9.4 mm
07:45 PM 64.4°F18.0°C 59.5°F15.3°C 84% 7.0 mph N11.3 kmh N 8.0 mph12.9 kmh 29.73 in1006.8 mb 0.00 in0.0 mm 0.00 in0.0 mm 0.37 in9.4 mm
07:50 PM 64.1°F17.8°C 59.5°F15.3°C 85% 1.0 mph N1.6 kmh N 9.0 mph14.5 kmh 29.73 in1006.8 mb 0.00 in0.0 mm 0.00 in0.0 mm 0.37 in9.4 mm
07:55 PM 63.9°F17.7°C 59.6°F15.3°C 86% 1.0 mph N1.6 kmh N 9.0 mph14.5 kmh 29.73 in1006.8 mb 0.00 in0.0 mm 0.00 in0.0 mm 0.37 in9.4 mm
08:00 PM 63.8°F17.7°C 59.5°F15.3°C 86% 2.0 mph N3.2 kmh N 3.0 mph4.8 kmh 29.73 in1006.8 mb 0.00 in0.0 mm 0.00 in0.0 mm 0.37 in9.4 mm
08:05 PM 63.6°F17.6°C 59.7°F15.4°C 87% 4.0 mph N6.4 kmh N 6.0 mph9.7 kmh 29.73 in1006.8 mb 0.00 in0.0 mm 0.00 in0.0 mm 0.37 in9.4 mm
08:10 PM 63.6°F17.6°C 59.7°F15.4°C 87% 8.0 mph N12.9 kmh N 8.0 mph12.9 kmh 29.73 in1006.8 mb 0.00 in0.0 mm 0.00 in0.0 mm 0.37 in9.4 mm
08:15 PM 63.4°F17.4°C 59.5°F15.3°C 87% 4.0 mph N6.4 kmh N 4.0 mph6.4 kmh 29.72 in1006.4 mb 0.00 in0.0 mm 0.00 in0.0 mm 0.37 in9.4 mm
08:20 PM 63.2°F17.3°C 59.3°F15.2°C 87% 3.0 mph N4.8 kmh N 6.0 mph9.7 kmh 29.72 in1006.4 mb 0.00 in0.0 mm 0.00 in0.0 mm 0.37 in9.4 mm
08:25 PM 62.9°F17.2°C 59.0°F15.0°C 87% 3.0 mph N4.8 kmh N 7.0 mph11.3 kmh 29.72 in1006.4 mb 0.00 in0.0 mm 0.00 in0.0 mm 0.37 in9.4 mm
08:30 PM 62.6°F17.0°C 58.7°F14.8°C 87% 5.0 mph N8.0 kmh N 5.0 mph8.0 kmh 29.72 in1006.4 mb 0.00 in0.0 mm 0.00 in0.0 mm 0.37 in9.4 mm
08:35 PM 62.4°F16.9°C 58.8°F14.9°C 88% Calm Calm 7.0 mph11.3 kmh 29.72 in1006.4 mb 0.00 in0.0 mm 0.00 in0.0 mm 0.37 in9.4 mm
08:40 PM 62.2°F16.8°C 58.6°F14.8°C 88% 4.0 mph N6.4 kmh N 9.0 mph14.5 kmh 29.72 in1006.4 mb 0.00 in0.0 mm 0.00 in0.0 mm 0.37 in9.4 mm
08:45 PM 62.0°F16.7°C 58.7°F14.8°C 89% 5.0 mph N8.0 kmh N 6.0 mph9.7 kmh 29.72 in1006.4 mb 0.00 in0.0 mm 0.00 in0.0 mm 0.37 in9.4 mm
08:50 PM 61.9°F16.6°C 58.6°F14.8°C 89% 4.0 mph N6.4 kmh N 9.0 mph14.5 kmh 29.73 in1006.8 mb 0.00 in0.0 mm 0.00 in0.0 mm 0.37 in9.4 mm
08:55 PM 61.7°F16.5°C 58.4°F14.7°C 89% 4.0 mph N6.4 kmh N 9.0 mph14.5 kmh 29.73 in1006.8 mb 0.00 in0.0 mm 0.00 in0.0 mm 0.37 in9.4 mm
09:00 PM 61.6°F16.4°C 58.6°F14.8°C 90% 7.0 mph N11.3 kmh N 7.0 mph11.3 kmh 29.73 in1006.8 mb 0.00 in0.0 mm 0.00 in0.0 mm 0.37 in9.4 mm
09:05 PM 61.4°F16.3°C 58.5°F14.7°C 90% 2.0 mph N3.2 kmh N 7.0 mph11.3 kmh 29.73 in1006.8 mb 0.00 in0.0 mm 0.00 in0.0 mm 0.37 in9.4 mm
09:10 PM 61.4°F16.3°C 58.8°F14.9°C 91% 3.0 mph N4.8 kmh N 7.0 mph11.3 kmh 29.74 in1007.1 mb 0.00 in0.0 mm 0.00 in0.0 mm 0.37 in9.4 mm
09:15 PM 61.3°F16.3°C 58.7°F14.8°C 91% 5.0 mph N8.0 kmh N 6.0 mph9.7 kmh 29.74 in1007.1 mb 0.00 in0.0 mm 0.00 in0.0 mm 0.37 in9.4 mm
09:20 PM 61.2°F16.2°C 58.6°F14.8°C 91% 3.0 mph N4.8 kmh N 8.0 mph12.9 kmh 29.75 in1007.5 mb 0.00 in0.0 mm 0.00 in0.0 mm 0.37 in9.4 mm
09:25 PM 61.2°F16.2°C 58.6°F14.8°C 91% 3.0 mph N4.8 kmh N 8.0 mph12.9 kmh 29.76 in1007.8 mb 0.00 in0.0 mm 0.00 in0.0 mm 0.37 in9.4 mm
09:30 PM 61.2°F16.2°C 58.6°F14.8°C 91% 4.0 mph N6.4 kmh N 5.0 mph8.0 kmh 29.77 in1008.1 mb 0.00 in0.0 mm 0.00 in0.0 mm 0.37 in9.4 mm
09:35 PM 61.1°F16.2°C 58.5°F14.7°C 91% 2.0 mph N3.2 kmh N 8.0 mph12.9 kmh 29.76 in1007.8 mb 0.00 in0.0 mm 0.00 in0.0 mm 0.37 in9.4 mm
09:40 PM 61.1°F16.2°C 58.5°F14.7°C 91% 2.0 mph N3.2 kmh N 8.0 mph12.9 kmh 29.76 in1007.8 mb 0.00 in0.0 mm 0.00 in0.0 mm 0.37 in9.4 mm
09:45 PM 61.0°F16.1°C 58.4°F14.7°C 91% 5.0 mph N8.0 kmh N 6.0 mph9.7 kmh 29.75 in1007.5 mb 0.00 in0.0 mm 0.00 in0.0 mm 0.37 in9.4 mm
09:50 PM 60.9°F16.1°C 58.6°F14.8°C 92% 3.0 mph N4.8 kmh N 9.0 mph14.5 kmh 29.75 in1007.5 mb 0.00 in0.0 mm 0.00 in0.0 mm 0.37 in9.4 mm
09:55 PM 60.9°F16.1°C 58.6°F14.8°C 92% 8.0 mph N12.9 kmh N 9.0 mph14.5 kmh 29.76 in1007.8 mb 0.00 in0.0 mm 0.00 in0.0 mm 0.37 in9.4 mm
10:00 PM 60.9°F16.1°C 58.6°F14.8°C 92% 7.0 mph N11.3 kmh N 7.0 mph11.3 kmh 29.77 in1008.1 mb 0.00 in0.0 mm 0.00 in0.0 mm 0.37 in9.4 mm
10:05 PM 60.9°F16.1°C 58.6°F14.8°C 92% 5.0 mph N8.0 kmh N 8.0 mph12.9 kmh 29.77 in1008.1 mb 0.00 in0.0 mm 0.00 in0.0 mm 0.37 in9.4 mm
10:10 PM 60.9°F16.1°C 58.6°F14.8°C 92% 4.0 mph N6.4 kmh N 9.0 mph14.5 kmh 29.77 in1008.1 mb 0.00 in0.0 mm 0.00 in0.0 mm 0.37 in9.4 mm
10:15 PM 60.8°F16.0°C 58.5°F14.7°C 92% 4.0 mph N6.4 kmh N 4.0 mph6.4 kmh 29.77 in1008.1 mb 0.00 in0.0 mm 0.00 in0.0 mm 0.37 in9.4 mm
10:20 PM 60.8°F16.0°C 58.5°F14.7°C 92% 4.0 mph N6.4 kmh N 7.0 mph11.3 kmh 29.77 in1008.1 mb 0.00 in0.0 mm 0.00 in0.0 mm 0.37 in9.4 mm
10:25 PM 60.8°F16.0°C 58.5°F14.7°C 92% 5.0 mph N8.0 kmh N 7.0 mph11.3 kmh 29.77 in1008.1 mb 0.00 in0.0 mm 0.00 in0.0 mm 0.37 in9.4 mm
10:30 PM 60.7°F15.9°C 58.4°F14.7°C 92% 1.0 mph N1.6 kmh N 3.0 mph4.8 kmh 29.77 in1008.1 mb 0.00 in0.0 mm 0.00 in0.0 mm 0.37 in9.4 mm
10:35 PM 60.7°F15.9°C 58.4°F14.7°C 92% 3.0 mph N4.8 kmh N 9.0 mph14.5 kmh 29.77 in1008.1 mb 0.00 in0.0 mm 0.00 in0.0 mm 0.37 in9.4 mm
10:40 PM 60.6°F15.9°C 58.3°F14.6°C 92% 3.0 mph N4.8 kmh N 9.0 mph14.5 kmh 29.77 in1008.1 mb 0.00 in0.0 mm 0.00 in0.0 mm 0.37 in9.4 mm
10:45 PM 60.5°F15.8°C 57.9°F14.4°C 91% 4.0 mph N6.4 kmh N 5.0 mph8.0 kmh 29.77 in1008.1 mb 0.00 in0.0 mm 0.00 in0.0 mm 0.37 in9.4 mm
10:50 PM 60.4°F15.8°C 58.1°F14.5°C 92% 3.0 mph N4.8 kmh N 7.0 mph11.3 kmh 29.77 in1008.1 mb 0.00 in0.0 mm 0.00 in0.0 mm 0.37 in9.4 mm
10:55 PM 60.4°F15.8°C 58.1°F14.5°C 92% 3.0 mph N4.8 kmh N 7.0 mph11.3 kmh 29.77 in1008.1 mb 0.00 in0.0 mm 0.00 in0.0 mm 0.37 in9.4 mm
11:00 PM 60.4°F15.8°C 58.1°F14.5°C 92% 5.0 mph N8.0 kmh N 6.0 mph9.7 kmh 29.78 in1008.5 mb 0.00 in0.0 mm 0.00 in0.0 mm 0.37 in9.4 mm
11:05 PM 60.3°F15.7°C 58.0°F14.4°C 92% 2.0 mph N3.2 kmh N 9.0 mph14.5 kmh 29.78 in1008.5 mb 0.00 in0.0 mm 0.00 in0.0 mm 0.37 in9.4 mm
11:10 PM 60.2°F15.7°C 57.9°F14.4°C 92% 5.0 mph N8.0 kmh N 11.0 mph17.7 kmh 29.78 in1008.5 mb 0.00 in0.0 mm 0.00 in0.0 mm 0.37 in9.4 mm
11:15 PM 60.2°F15.7°C 57.9°F14.4°C 92% 5.0 mph N8.0 kmh N 5.0 mph8.0 kmh 29.78 in1008.5 mb 0.00 in0.0 mm 0.00 in0.0 mm 0.37 in9.4 mm
11:20 PM 60.2°F15.7°C 57.9°F14.4°C 92% 8.0 mph N12.9 kmh N 8.0 mph12.9 kmh 29.78 in1008.5 mb 0.00 in0.0 mm 0.00 in0.0 mm 0.37 in9.4 mm
11:25 PM 60.1°F15.6°C 57.8°F14.3°C 92% 3.0 mph N4.8 kmh N 9.0 mph14.5 kmh 29.78 in1008.5 mb 0.00 in0.0 mm 0.00 in0.0 mm 0.37 in9.4 mm
11:30 PM 60.0°F15.6°C 57.4°F14.1°C 91% 3.0 mph N4.8 kmh N 4.0 mph6.4 kmh 29.77 in1008.1 mb 0.00 in0.0 mm 0.00 in0.0 mm 0.37 in9.4 mm
11:35 PM 60.0°F15.6°C 57.7°F14.3°C 92% 4.0 mph N6.4 kmh N 6.0 mph9.7 kmh 29.77 in1008.1 mb 0.00 in0.0 mm 0.00 in0.0 mm 0.37 in9.4 mm
11:40 PM 60.0°F15.6°C 57.7°F14.3°C 92% 2.0 mph N3.2 kmh N 8.0 mph12.9 kmh 29.76 in1007.8 mb 0.00 in0.0 mm 0.00 in0.0 mm 0.37 in9.4 mm
11:45 PM 59.9°F15.5°C 57.3°F14.1°C 91% 3.0 mph N4.8 kmh N 4.0 mph6.4 kmh 29.76 in1007.8 mb 0.00 in0.0 mm 0.00 in0.0 mm 0.37 in9.4 mm
11:50 PM 59.9°F15.5°C 57.6°F14.2°C 92% 4.0 mph N6.4 kmh N 5.0 mph8.0 kmh 29.76 in1007.8 mb 0.00 in0.0 mm 0.00 in0.0 mm 0.37 in9.4 mm
11:55 PM 59.9°F15.5°C 57.6°F14.2°C 92% 4.0 mph N6.4 kmh N 6.0 mph9.7 kmh 29.75 in1007.5 mb 0.00 in0.0 mm 0.00 in0.0 mm 0.37 in9.4 mm